sensor_id;sensor_type;location;lat;lon;timestamp;temperature;humidity
8824;DHT22;4448;50.904;4.694;2023-10-19T00:00:42;15.10;99.90
8824;DHT22;4448;50.904;4.694;2023-10-19T00:03:11;15.30;99.90
8824;DHT22;4448;50.904;4.694;2023-10-19T00:05:38;15.30;99.90
8824;DHT22;4448;50.904;4.694;2023-10-19T00:08:05;15.20;99.90
8824;DHT22;4448;50.904;4.694;2023-10-19T00:10:42;15.20;99.90
8824;DHT22;4448;50.904;4.694;2023-10-19T00:13:14;15.20;99.90
8824;DHT22;4448;50.904;4.694;2023-10-19T00:15:41;15.30;99.90
8824;DHT22;4448;50.904;4.694;2023-10-19T00:18:13;15.30;99.90
8824;DHT22;4448;50.904;4.694;2023-10-19T00:20:47;15.30;99.90
8824;DHT22;4448;50.904;4.694;2023-10-19T00:23:13;15.20;99.90
8824;DHT22;4448;50.904;4.694;2023-10-19T00:25:39;15.30;99.90
8824;DHT22;4448;50.904;4.694;2023-10-19T00:28:10;15.20;99.90
8824;DHT22;4448;50.904;4.694;2023-10-19T00:30:40;15.30;99.90
8824;DHT22;4448;50.904;4.694;2023-10-19T00:33:08;15.30;99.90
8824;DHT22;4448;50.904;4.694;2023-10-19T00:38:32;15.20;99.90
8824;DHT22;4448;50.904;4.694;2023-10-19T00:41:08;15.30;99.90
8824;DHT22;4448;50.904;4.694;2023-10-19T00:43:34;15.20;99.90
8824;DHT22;4448;50.904;4.694;2023-10-19T00:46:13;15.30;99.90
8824;DHT22;4448;50.904;4.694;2023-10-19T00:48:49;15.70;99.90
8824;DHT22;4448;50.904;4.694;2023-10-19T00:51:18;15.80;99.90
8824;DHT22;4448;50.904;4.694;2023-10-19T00:54:00;15.30;99.90
8824;DHT22;4448;50.904;4.694;2023-10-19T00:56:35;15.30;99.90
8824;DHT22;4448;50.904;4.694;2023-10-19T00:59:02;15.40;99.90
8824;DHT22;4448;50.904;4.694;2023-10-19T01:01:41;15.40;99.90
8824;DHT22;4448;50.904;4.694;2023-10-19T01:04:11;15.30;99.90
8824;DHT22;4448;50.904;4.694;2023-10-19T01:06:42;14.70;99.90
8824;DHT22;4448;50.904;4.694;2023-10-19T01:09:23;15.30;99.90
8824;DHT22;4448;50.904;4.694;2023-10-19T01:11:52;15.30;99.90
8824;DHT22;4448;50.904;4.694;2023-10-19T01:14:22;15.30;99.90
8824;DHT22;4448;50.904;4.694;2023-10-19T01:16:53;15.30;99.90
8824;DHT22;4448;50.904;4.694;2023-10-19T01:19:25;15.30;99.90
8824;DHT22;4448;50.904;4.694;2023-10-19T01:21:53;15.40;99.90
8824;DHT22;4448;50.904;4.694;2023-10-19T01:24:25;15.30;99.90
8824;DHT22;4448;50.904;4.694;2023-10-19T01:27:09;15.30;99.90
8824;DHT22;4448;50.904;4.694;2023-10-19T01:29:35;15.30;99.90
8824;DHT22;4448;50.904;4.694;2023-10-19T01:32:04;15.30;99.90
8824;DHT22;4448;50.904;4.694;2023-10-19T01:34:34;15.30;99.90
8824;DHT22;4448;50.904;4.694;2023-10-19T01:37:01;15.30;99.90
8824;DHT22;4448;50.904;4.694;2023-10-19T01:39:33;15.40;99.90
8824;DHT22;4448;50.904;4.694;2023-10-19T01:42:01;15.30;99.90
8824;DHT22;4448;50.904;4.694;2023-10-19T01:44:29;15.30;99.90
8824;DHT22;4448;50.904;4.694;2023-10-19T01:46:55;15.40;99.90
8824;DHT22;4448;50.904;4.694;2023-10-19T01:49:21;15.40;99.90
8824;DHT22;4448;50.904;4.694;2023-10-19T01:51:54;15.40;99.90
8824;DHT22;4448;50.904;4.694;2023-10-19T01:54:21;15.40;99.90
8824;DHT22;4448;50.904;4.694;2023-10-19T01:56:55;15.30;99.90
8824;DHT22;4448;50.904;4.694;2023-10-19T01:59:26;15.40;99.90
8824;DHT22;4448;50.904;4.694;2023-10-19T02:01:56;15.30;99.90
8824;DHT22;4448;50.904;4.694;2023-10-19T02:04:23;15.40;99.90
8824;DHT22;4448;50.904;4.694;2023-10-19T02:06:49;15.40;99.90
8824;DHT22;4448;50.904;4.694;2023-10-19T02:09:18;15.30;99.90
8824;DHT22;4448;50.904;4.694;2023-10-19T02:11:53;15.30;99.90
8824;DHT22;4448;50.904;4.694;2023-10-19T02:14:21;15.40;99.90
8824;DHT22;4448;50.904;4.694;2023-10-19T02:16:49;15.40;99.90
8824;DHT22;4448;50.904;4.694;2023-10-19T02:19:19;15.40;99.90
8824;DHT22;4448;50.904;4.694;2023-10-19T02:21:58;15.30;99.90
8824;DHT22;4448;50.904;4.694;2023-10-19T02:24:25;15.30;99.90
8824;DHT22;4448;50.904;4.694;2023-10-19T02:26:55;15.40;99.90
8824;DHT22;4448;50.904;4.694;2023-10-19T02:29:21;15.40;99.90
8824;DHT22;4448;50.904;4.694;2023-10-19T02:31:47;15.40;99.90
8824;DHT22;4448;50.904;4.694;2023-10-19T02:34:14;15.40;99.90
8824;DHT22;4448;50.904;4.694;2023-10-19T02:36:44;15.30;99.90
8824;DHT22;4448;50.904;4.694;2023-10-19T02:39:12;15.40;99.90
8824;DHT22;4448;50.904;4.694;2023-10-19T02:41:47;15.40;99.90
8824;DHT22;4448;50.904;4.694;2023-10-19T02:44:19;15.40;99.90
8824;DHT22;4448;50.904;4.694;2023-10-19T02:46:49;15.40;99.90
8824;DHT22;4448;50.904;4.694;2023-10-19T02:49:16;15.40;99.90
8824;DHT22;4448;50.904;4.694;2023-10-19T02:51:46;15.40;99.90
8824;DHT22;4448;50.904;4.694;2023-10-19T02:54:17;15.40;99.90
8824;DHT22;4448;50.904;4.694;2023-10-19T02:56:49;15.30;99.90
8824;DHT22;4448;50.904;4.694;2023-10-19T02:59:15;15.30;99.90
8824;DHT22;4448;50.904;4.694;2023-10-19T03:01:42;15.30;99.90
8824;DHT22;4448;50.904;4.694;2023-10-19T03:04:11;15.30;99.90
8824;DHT22;4448;50.904;4.694;2023-10-19T03:06:41;15.30;99.90
8824;DHT22;4448;50.904;4.694;2023-10-19T03:09:08;15.30;99.90
8824;DHT22;4448;50.904;4.694;2023-10-19T03:12:09;15.30;99.90
8824;DHT22;4448;50.904;4.694;2023-10-19T03:14:35;15.30;99.90
8824;DHT22;4448;50.904;4.694;2023-10-19T03:19:34;15.20;99.90
8824;DHT22;4448;50.904;4.694;2023-10-19T03:22:00;15.30;99.90
8824;DHT22;4448;50.904;4.694;2023-10-19T03:24:26;15.20;99.90
8824;DHT22;4448;50.904;4.694;2023-10-19T03:27:02;15.20;99.90
8824;DHT22;4448;50.904;4.694;2023-10-19T03:29:42;15.20;99.90
8824;DHT22;4448;50.904;4.694;2023-10-19T03:32:12;15.20;99.90
8824;DHT22;4448;50.904;4.694;2023-10-19T03:34:38;15.20;99.90
8824;DHT22;4448;50.904;4.694;2023-10-19T03:37:04;15.20;99.90
8824;DHT22;4448;50.904;4.694;2023-10-19T03:39:38;15.20;99.90
8824;DHT22;4448;50.904;4.694;2023-10-19T03:42:07;15.20;99.90
8824;DHT22;4448;50.904;4.694;2023-10-19T03:44:34;15.20;99.90
8824;DHT22;4448;50.904;4.694;2023-10-19T03:47:08;15.20;99.90
8824;DHT22;4448;50.904;4.694;2023-10-19T03:49:38;15.20;99.90
8824;DHT22;4448;50.904;4.694;2023-10-19T03:52:08;15.30;99.90
8824;DHT22;4448;50.904;4.694;2023-10-19T03:54:34;15.20;99.90
8824;DHT22;4448;50.904;4.694;2023-10-19T03:57:03;15.20;99.90
8824;DHT22;4448;50.904;4.694;2023-10-19T03:59:38;15.20;99.90
8824;DHT22;4448;50.904;4.694;2023-10-19T04:02:04;15.30;99.90
8824;DHT22;4448;50.904;4.694;2023-10-19T04:04:42;15.30;99.90
8824;DHT22;4448;50.904;4.694;2023-10-19T04:07:18;15.30;99.90
8824;DHT22;4448;50.904;4.694;2023-10-19T04:09:50;15.20;99.90
8824;DHT22;4448;50.904;4.694;2023-10-19T04:12:30;15.30;99.90
8824;DHT22;4448;50.904;4.694;2023-10-19T04:15:02;15.30;99.90
8824;DHT22;4448;50.904;4.694;2023-10-19T04:17:35;15.30;99.90
8824;DHT22;4448;50.904;4.694;2023-10-19T04:20:02;15.30;99.90
8824;DHT22;4448;50.904;4.694;2023-10-19T04:22:47;15.30;99.90
8824;DHT22;4448;50.904;4.694;2023-10-19T04:25:14;15.30;99.90
8824;DHT22;4448;50.904;4.694;2023-10-19T04:27:42;15.30;99.90
8824;DHT22;4448;50.904;4.694;2023-10-19T04:30:13;15.30;99.90
8824;DHT22;4448;50.904;4.694;2023-10-19T04:32:43;15.40;99.90
8824;DHT22;4448;50.904;4.694;2023-10-19T04:35:09;15.30;99.90
8824;DHT22;4448;50.904;4.694;2023-10-19T04:37:35;15.40;99.90
8824;DHT22;4448;50.904;4.694;2023-10-19T04:40:01;15.40;99.90
8824;DHT22;4448;50.904;4.694;2023-10-19T04:42:27;15.30;99.90
8824;DHT22;4448;50.904;4.694;2023-10-19T04:44:56;15.30;99.90
8824;DHT22;4448;50.904;4.694;2023-10-19T04:47:22;15.30;99.90
8824;DHT22;4448;50.904;4.694;2023-10-19T04:49:48;15.40;99.90
8824;DHT22;4448;50.904;4.694;2023-10-19T04:52:15;15.40;99.90
8824;DHT22;4448;50.904;4.694;2023-10-19T04:54:40;15.40;99.90
8824;DHT22;4448;50.904;4.694;2023-10-19T04:57:07;15.40;99.90
8824;DHT22;4448;50.904;4.694;2023-10-19T04:59:33;15.40;99.90
8824;DHT22;4448;50.904;4.694;2023-10-19T05:01:59;15.40;99.90
8824;DHT22;4448;50.904;4.694;2023-10-19T05:04:28;15.30;99.90
8824;DHT22;4448;50.904;4.694;2023-10-19T05:06:55;15.40;99.90
8824;DHT22;4448;50.904;4.694;2023-10-19T05:09:21;15.40;99.90
8824;DHT22;4448;50.904;4.694;2023-10-19T05:11:47;15.30;99.90
8824;DHT22;4448;50.904;4.694;2023-10-19T05:14:13;15.40;99.90
8824;DHT22;4448;50.904;4.694;2023-10-19T05:19:06;15.40;99.90
8824;DHT22;4448;50.904;4.694;2023-10-19T05:21:32;15.40;99.90
8824;DHT22;4448;50.904;4.694;2023-10-19T05:23:59;15.40;99.90
8824;DHT22;4448;50.904;4.694;2023-10-19T05:26:28;15.50;99.90
8824;DHT22;4448;50.904;4.694;2023-10-19T05:28:54;15.40;99.90
8824;DHT22;4448;50.904;4.694;2023-10-19T05:31:20;15.40;99.90
8824;DHT22;4448;50.904;4.694;2023-10-19T05:33:46;15.50;99.90
8824;DHT22;4448;50.904;4.694;2023-10-19T05:36:14;15.50;99.90
8824;DHT22;4448;50.904;4.694;2023-10-19T05:38:40;15.40;99.90
8824;DHT22;4448;50.904;4.694;2023-10-19T05:41:06;15.40;99.90
8824;DHT22;4448;50.904;4.694;2023-10-19T05:43:33;15.40;99.90
8824;DHT22;4448;50.904;4.694;2023-10-19T05:46:00;15.40;99.90
8824;DHT22;4448;50.904;4.694;2023-10-19T05:48:26;15.40;99.90
8824;DHT22;4448;50.904;4.694;2023-10-19T05:50:52;15.40;99.90
8824;DHT22;4448;50.904;4.694;2023-10-19T05:53:18;15.40;99.90
8824;DHT22;4448;50.904;4.694;2023-10-19T05:55:46;15.50;99.90
8824;DHT22;4448;50.904;4.694;2023-10-19T05:58:12;15.60;99.90
8824;DHT22;4448;50.904;4.694;2023-10-19T06:00:38;15.50;99.90
8824;DHT22;4448;50.904;4.694;2023-10-19T06:03:04;15.50;99.90
8824;DHT22;4448;50.904;4.694;2023-10-19T06:05:30;15.40;99.90
8824;DHT22;4448;50.904;4.694;2023-10-19T06:07:56;15.50;99.90
8824;DHT22;4448;50.904;4.694;2023-10-19T06:10:25;15.50;99.90
8824;DHT22;4448;50.904;4.694;2023-10-19T06:12:51;15.40;99.90
8824;DHT22;4448;50.904;4.694;2023-10-19T06:15:19;15.50;99.90
8824;DHT22;4448;50.904;4.694;2023-10-19T06:17:46;15.50;99.90
8824;DHT22;4448;50.904;4.694;2023-10-19T06:20:14;15.50;99.90
8824;DHT22;4448;50.904;4.694;2023-10-19T06:22:58;15.50;99.90
8824;DHT22;4448;50.904;4.694;2023-10-19T06:25:31;15.50;99.90
8824;DHT22;4448;50.904;4.694;2023-10-19T06:27:57;15.50;99.90
8824;DHT22;4448;50.904;4.694;2023-10-19T06:30:23;15.50;99.90
8824;DHT22;4448;50.904;4.694;2023-10-19T06:32:51;15.50;99.90
8824;DHT22;4448;50.904;4.694;2023-10-19T06:35:22;15.50;99.90
8824;DHT22;4448;50.904;4.694;2023-10-19T06:37:48;15.50;99.90
8824;DHT22;4448;50.904;4.694;2023-10-19T06:40:16;15.50;99.90
8824;DHT22;4448;50.904;4.694;2023-10-19T06:42:43;15.50;99.90
8824;DHT22;4448;50.904;4.694;2023-10-19T06:45:11;15.50;99.90
8824;DHT22;4448;50.904;4.694;2023-10-19T06:47:49;15.50;99.90
8824;DHT22;4448;50.904;4.694;2023-10-19T06:50:19;15.50;99.90
8824;DHT22;4448;50.904;4.694;2023-10-19T06:52:46;15.50;99.90
8824;DHT22;4448;50.904;4.694;2023-10-19T06:55:13;15.50;99.90
8824;DHT22;4448;50.904;4.694;2023-10-19T06:57:43;15.50;99.90
8824;DHT22;4448;50.904;4.694;2023-10-19T07:00:14;15.50;99.90
8824;DHT22;4448;50.904;4.694;2023-10-19T07:02:42;15.40;99.90
8824;DHT22;4448;50.904;4.694;2023-10-19T07:05:09;15.40;99.90
8824;DHT22;4448;50.904;4.694;2023-10-19T07:07:40;15.40;99.90
8824;DHT22;4448;50.904;4.694;2023-10-19T07:10:07;15.40;99.90
8824;DHT22;4448;50.904;4.694;2023-10-19T07:12:34;15.40;99.90
8824;DHT22;4448;50.904;4.694;2023-10-19T07:15:00;15.40;99.90
8824;DHT22;4448;50.904;4.694;2023-10-19T07:17:28;15.40;99.90
8824;DHT22;4448;50.904;4.694;2023-10-19T07:19:54;15.40;99.90
8824;DHT22;4448;50.904;4.694;2023-10-19T07:22:20;15.50;99.90
8824;DHT22;4448;50.904;4.694;2023-10-19T07:24:50;15.50;99.90
8824;DHT22;4448;50.904;4.694;2023-10-19T07:27:16;15.50;99.90
8824;DHT22;4448;50.904;4.694;2023-10-19T07:29:45;15.50;99.90
8824;DHT22;4448;50.904;4.694;2023-10-19T07:32:11;15.50;99.90
8824;DHT22;4448;50.904;4.694;2023-10-19T07:34:39;15.50;99.90
8824;DHT22;4448;50.904;4.694;2023-10-19T07:37:05;15.60;99.90
8824;DHT22;4448;50.904;4.694;2023-10-19T07:39:32;15.60;99.90
8824;DHT22;4448;50.904;4.694;2023-10-19T07:41:59;15.60;99.90
8824;DHT22;4448;50.904;4.694;2023-10-19T07:44:25;15.60;99.90
8824;DHT22;4448;50.904;4.694;2023-10-19T07:46:51;15.60;99.90
8824;DHT22;4448;50.904;4.694;2023-10-19T07:49:17;15.60;99.90
8824;DHT22;4448;50.904;4.694;2023-10-19T07:51:47;15.70;99.90
8824;DHT22;4448;50.904;4.694;2023-10-19T07:54:13;15.70;99.90
8824;DHT22;4448;50.904;4.694;2023-10-19T07:56:39;15.70;99.90
8824;DHT22;4448;50.904;4.694;2023-10-19T07:59:05;15.70;99.90
8824;DHT22;4448;50.904;4.694;2023-10-19T08:01:32;15.70;99.90
8824;DHT22;4448;50.904;4.694;2023-10-19T08:03:58;15.80;99.90
8824;DHT22;4448;50.904;4.694;2023-10-19T08:06:24;15.90;99.90
8824;DHT22;4448;50.904;4.694;2023-10-19T08:08:50;16.00;99.90
8824;DHT22;4448;50.904;4.694;2023-10-19T08:11:16;16.10;99.90
8824;DHT22;4448;50.904;4.694;2023-10-19T08:13:42;16.20;99.90
8824;DHT22;4448;50.904;4.694;2023-10-19T08:16:08;16.30;99.90
8824;DHT22;4448;50.904;4.694;2023-10-19T08:18:34;16.30;99.90
8824;DHT22;4448;50.904;4.694;2023-10-19T08:21:01;16.30;99.90
8824;DHT22;4448;50.904;4.694;2023-10-19T08:23:27;16.30;99.90
8824;DHT22;4448;50.904;4.694;2023-10-19T08:25:54;16.40;99.90
8824;DHT22;4448;50.904;4.694;2023-10-19T08:28:20;16.40;99.90
8824;DHT22;4448;50.904;4.694;2023-10-19T08:30:46;16.40;99.90
8824;DHT22;4448;50.904;4.694;2023-10-19T08:33:26;16.40;99.90
8824;DHT22;4448;50.904;4.694;2023-10-19T08:35:56;16.40;99.90
8824;DHT22;4448;50.904;4.694;2023-10-19T08:38:25;16.50;99.90
8824;DHT22;4448;50.904;4.694;2023-10-19T08:40:51;16.40;99.90
8824;DHT22;4448;50.904;4.694;2023-10-19T08:43:18;16.50;99.90
8824;DHT22;4448;50.904;4.694;2023-10-19T08:45:45;16.50;99.90
8824;DHT22;4448;50.904;4.694;2023-10-19T08:48:11;16.50;99.90
8824;DHT22;4448;50.904;4.694;2023-10-19T08:50:37;16.50;99.90
8824;DHT22;4448;50.904;4.694;2023-10-19T08:53:04;16.50;99.90
8824;DHT22;4448;50.904;4.694;2023-10-19T08:55:30;16.50;99.90
8824;DHT22;4448;50.904;4.694;2023-10-19T08:57:57;16.50;99.90
8824;DHT22;4448;50.904;4.694;2023-10-19T09:00:24;16.50;99.90
8824;DHT22;4448;50.904;4.694;2023-10-19T09:02:54;16.50;99.90
8824;DHT22;4448;50.904;4.694;2023-10-19T09:05:22;16.50;99.90
8824;DHT22;4448;50.904;4.694;2023-10-19T09:07:55;16.50;99.90
8824;DHT22;4448;50.904;4.694;2023-10-19T09:10:25;16.50;99.90
8824;DHT22;4448;50.904;4.694;2023-10-19T09:13:04;16.60;99.90
8824;DHT22;4448;50.904;4.694;2023-10-19T09:20:40;16.70;99.90
8824;DHT22;4448;50.904;4.694;2023-10-19T09:23:07;16.50;99.90
8824;DHT22;4448;50.904;4.694;2023-10-19T09:28:01;16.60;99.90
8824;DHT22;4448;50.904;4.694;2023-10-19T09:30:30;16.60;99.90
8824;DHT22;4448;50.904;4.694;2023-10-19T09:32:57;16.60;99.90
8824;DHT22;4448;50.904;4.694;2023-10-19T09:35:25;16.60;99.90
8824;DHT22;4448;50.904;4.694;2023-10-19T09:37:54;16.60;99.90
8824;DHT22;4448;50.904;4.694;2023-10-19T09:40:21;16.60;99.90
8824;DHT22;4448;50.904;4.694;2023-10-19T09:42:53;16.60;99.90
8824;DHT22;4448;50.904;4.694;2023-10-19T09:45:42;16.60;99.90
8824;DHT22;4448;50.904;4.694;2023-10-19T09:48:40;16.60;99.90
8824;DHT22;4448;50.904;4.694;2023-10-19T09:51:11;16.60;99.90
8824;DHT22;4448;50.904;4.694;2023-10-19T09:53:39;16.60;99.90
8824;DHT22;4448;50.904;4.694;2023-10-19T09:56:12;16.70;99.90
8824;DHT22;4448;50.904;4.694;2023-10-19T09:58:46;16.70;99.90
8824;DHT22;4448;50.904;4.694;2023-10-19T10:01:14;16.70;99.90
8824;DHT22;4448;50.904;4.694;2023-10-19T10:03:45;16.70;99.90
8824;DHT22;4448;50.904;4.694;2023-10-19T10:06:13;16.70;99.90
8824;DHT22;4448;50.904;4.694;2023-10-19T10:08:43;16.70;99.90
8824;DHT22;4448;50.904;4.694;2023-10-19T10:11:15;16.80;99.90
8824;DHT22;4448;50.904;4.694;2023-10-19T10:13:43;16.80;99.90
8824;DHT22;4448;50.904;4.694;2023-10-19T10:16:13;16.80;99.90
8824;DHT22;4448;50.904;4.694;2023-10-19T10:18:41;16.80;99.90
8824;DHT22;4448;50.904;4.694;2023-10-19T10:21:11;16.80;99.90
8824;DHT22;4448;50.904;4.694;2023-10-19T10:24:04;16.80;99.90
8824;DHT22;4448;50.904;4.694;2023-10-19T10:26:31;16.80;99.90
8824;DHT22;4448;50.904;4.694;2023-10-19T10:31:44;16.90;99.90
8824;DHT22;4448;50.904;4.694;2023-10-19T10:34:12;16.90;99.90
8824;DHT22;4448;50.904;4.694;2023-10-19T10:37:07;17.00;99.90
8824;DHT22;4448;50.904;4.694;2023-10-19T10:39:35;17.00;99.90
8824;DHT22;4448;50.904;4.694;2023-10-19T10:42:05;17.00;99.90
8824;DHT22;4448;50.904;4.694;2023-10-19T10:44:48;17.10;99.90
8824;DHT22;4448;50.904;4.694;2023-10-19T10:47:18;17.10;99.90
8824;DHT22;4448;50.904;4.694;2023-10-19T10:49:59;17.10;99.90
8824;DHT22;4448;50.904;4.694;2023-10-19T10:52:42;17.10;99.90
8824;DHT22;4448;50.904;4.694;2023-10-19T10:55:13;17.10;99.90
8824;DHT22;4448;50.904;4.694;2023-10-19T10:57:43;17.10;99.90
8824;DHT22;4448;50.904;4.694;2023-10-19T11:00:12;17.10;99.90
8824;DHT22;4448;50.904;4.694;2023-10-19T11:02:43;17.10;99.90
8824;DHT22;4448;50.904;4.694;2023-10-19T11:05:15;17.10;99.90
8824;DHT22;4448;50.904;4.694;2023-10-19T11:08:02;17.10;99.90
8824;DHT22;4448;50.904;4.694;2023-10-19T11:10:28;17.10;99.90
8824;DHT22;4448;50.904;4.694;2023-10-19T11:13:05;17.00;99.90
8824;DHT22;4448;50.904;4.694;2023-10-19T11:15:35;17.00;99.90
8824;DHT22;4448;50.904;4.694;2023-10-19T11:18:04;17.00;99.90
8824;DHT22;4448;50.904;4.694;2023-10-19T11:20:33;16.90;99.90
8824;DHT22;4448;50.904;4.694;2023-10-19T11:22:59;16.90;99.90
8824;DHT22;4448;50.904;4.694;2023-10-19T11:25:29;16.90;99.90
8824;DHT22;4448;50.904;4.694;2023-10-19T11:27:59;16.90;99.90
8824;DHT22;4448;50.904;4.694;2023-10-19T11:30:30;16.90;99.90
8824;DHT22;4448;50.904;4.694;2023-10-19T11:32:59;16.90;99.90
8824;DHT22;4448;50.904;4.694;2023-10-19T11:35:28;16.90;99.90
8824;DHT22;4448;50.904;4.694;2023-10-19T11:37:57;16.90;99.90
8824;DHT22;4448;50.904;4.694;2023-10-19T11:40:23;16.90;99.90
8824;DHT22;4448;50.904;4.694;2023-10-19T11:42:51;16.90;99.90
8824;DHT22;4448;50.904;4.694;2023-10-19T11:45:18;16.90;99.90
8824;DHT22;4448;50.904;4.694;2023-10-19T11:47:44;16.90;99.90
8824;DHT22;4448;50.904;4.694;2023-10-19T11:50:11;16.90;99.90
8824;DHT22;4448;50.904;4.694;2023-10-19T11:52:45;16.90;99.90
8824;DHT22;4448;50.904;4.694;2023-10-19T11:55:14;16.90;99.90
8824;DHT22;4448;50.904;4.694;2023-10-19T11:57:41;16.90;99.90
8824;DHT22;4448;50.904;4.694;2023-10-19T12:00:10;17.00;99.90
8824;DHT22;4448;50.904;4.694;2023-10-19T12:02:39;16.90;99.90
8824;DHT22;4448;50.904;4.694;2023-10-19T12:05:08;16.90;99.90
8824;DHT22;4448;50.904;4.694;2023-10-19T12:07:39;16.90;99.90
8824;DHT22;4448;50.904;4.694;2023-10-19T12:10:07;16.90;99.90
8824;DHT22;4448;50.904;4.694;2023-10-19T12:12:36;16.90;99.90
8824;DHT22;4448;50.904;4.694;2023-10-19T12:15:05;16.90;99.90
8824;DHT22;4448;50.904;4.694;2023-10-19T12:17:32;16.90;99.90
8824;DHT22;4448;50.904;4.694;2023-10-19T12:19:58;16.90;99.90
8824;DHT22;4448;50.904;4.694;2023-10-19T12:22:24;16.90;99.90
8824;DHT22;4448;50.904;4.694;2023-10-19T12:24:54;16.80;99.90
8824;DHT22;4448;50.904;4.694;2023-10-19T12:27:20;16.80;99.90
8824;DHT22;4448;50.904;4.694;2023-10-19T12:29:46;16.40;99.90
8824;DHT22;4448;50.904;4.694;2023-10-19T12:32:12;16.80;99.90
8824;DHT22;4448;50.904;4.694;2023-10-19T12:34:40;16.70;99.90
8824;DHT22;4448;50.904;4.694;2023-10-19T12:37:06;16.80;99.90
8824;DHT22;4448;50.904;4.694;2023-10-19T12:39:35;16.80;99.90
8824;DHT22;4448;50.904;4.694;2023-10-19T12:42:01;16.80;99.90
8824;DHT22;4448;50.904;4.694;2023-10-19T12:44:27;16.80;99.90
8824;DHT22;4448;50.904;4.694;2023-10-19T12:46:57;16.70;99.90
8824;DHT22;4448;50.904;4.694;2023-10-19T12:49:24;16.70;99.90
8824;DHT22;4448;50.904;4.694;2023-10-19T12:51:54;16.80;99.90
8824;DHT22;4448;50.904;4.694;2023-10-19T12:54:20;16.80;99.90
8824;DHT22;4448;50.904;4.694;2023-10-19T12:56:47;16.80;99.90
8824;DHT22;4448;50.904;4.694;2023-10-19T12:59:15;16.90;99.90
8824;DHT22;4448;50.904;4.694;2023-10-19T13:01:43;16.90;99.90
8824;DHT22;4448;50.904;4.694;2023-10-19T13:04:10;17.00;99.90
8824;DHT22;4448;50.904;4.694;2023-10-19T13:06:46;17.00;99.90
8824;DHT22;4448;50.904;4.694;2023-10-19T13:09:14;17.10;99.90
8824;DHT22;4448;50.904;4.694;2023-10-19T13:11:49;17.10;99.90
8824;DHT22;4448;50.904;4.694;2023-10-19T13:14:18;17.20;99.90
8824;DHT22;4448;50.904;4.694;2023-10-19T13:16:44;17.30;99.90
8824;DHT22;4448;50.904;4.694;2023-10-19T13:19:10;17.40;99.90
8824;DHT22;4448;50.904;4.694;2023-10-19T13:21:39;17.40;99.90
8824;DHT22;4448;50.904;4.694;2023-10-19T13:24:08;17.40;99.90
8824;DHT22;4448;50.904;4.694;2023-10-19T13:26:35;17.50;99.90
8824;DHT22;4448;50.904;4.694;2023-10-19T13:29:00;17.50;99.90
8824;DHT22;4448;50.904;4.694;2023-10-19T13:31:27;17.50;99.90
8824;DHT22;4448;50.904;4.694;2023-10-19T13:33:53;17.50;99.90
8824;DHT22;4448;50.904;4.694;2023-10-19T13:36:20;17.50;99.90
8824;DHT22;4448;50.904;4.694;2023-10-19T13:38:46;17.50;99.90
8824;DHT22;4448;50.904;4.694;2023-10-19T13:41:11;17.50;99.90
8824;DHT22;4448;50.904;4.694;2023-10-19T13:43:39;17.50;99.90
8824;DHT22;4448;50.904;4.694;2023-10-19T13:46:05;17.50;99.90
8824;DHT22;4448;50.904;4.694;2023-10-19T13:48:31;17.50;99.90
8824;DHT22;4448;50.904;4.694;2023-10-19T13:51:00;17.50;99.90
8824;DHT22;4448;50.904;4.694;2023-10-19T13:53:26;17.70;99.90
8824;DHT22;4448;50.904;4.694;2023-10-19T13:55:52;17.50;99.90
8824;DHT22;4448;50.904;4.694;2023-10-19T13:58:19;17.60;99.90
8824;DHT22;4448;50.904;4.694;2023-10-19T14:00:44;17.60;99.90
8824;DHT22;4448;50.904;4.694;2023-10-19T14:03:11;17.70;99.90
8824;DHT22;4448;50.904;4.694;2023-10-19T14:05:45;17.70;99.90
8824;DHT22;4448;50.904;4.694;2023-10-19T14:08:17;17.70;99.90
8824;DHT22;4448;50.904;4.694;2023-10-19T14:10:44;17.70;99.90
8824;DHT22;4448;50.904;4.694;2023-10-19T14:13:11;17.70;99.90
8824;DHT22;4448;50.904;4.694;2023-10-19T14:15:43;17.80;99.90
8824;DHT22;4448;50.904;4.694;2023-10-19T14:18:09;17.70;99.90
8824;DHT22;4448;50.904;4.694;2023-10-19T14:20:36;17.70;99.90
8824;DHT22;4448;50.904;4.694;2023-10-19T14:23:04;17.70;99.90
8824;DHT22;4448;50.904;4.694;2023-10-19T14:25:30;17.70;99.90
8824;DHT22;4448;50.904;4.694;2023-10-19T14:27:56;17.70;99.90
8824;DHT22;4448;50.904;4.694;2023-10-19T14:30:27;17.70;99.90
8824;DHT22;4448;50.904;4.694;2023-10-19T14:32:54;17.70;99.90
8824;DHT22;4448;50.904;4.694;2023-10-19T14:35:21;17.80;99.90
8824;DHT22;4448;50.904;4.694;2023-10-19T14:37:49;17.80;99.90
8824;DHT22;4448;50.904;4.694;2023-10-19T14:40:19;17.80;99.90
8824;DHT22;4448;50.904;4.694;2023-10-19T14:42:47;17.80;99.90
8824;DHT22;4448;50.904;4.694;2023-10-19T14:45:14;17.80;99.90
8824;DHT22;4448;50.904;4.694;2023-10-19T14:47:44;17.90;99.90
8824;DHT22;4448;50.904;4.694;2023-10-19T14:50:12;17.90;99.90
8824;DHT22;4448;50.904;4.694;2023-10-19T14:52:45;17.90;99.90
8824;DHT22;4448;50.904;4.694;2023-10-19T14:55:12;17.90;99.90
8824;DHT22;4448;50.904;4.694;2023-10-19T14:57:41;17.90;99.90
8824;DHT22;4448;50.904;4.694;2023-10-19T15:00:09;17.80;99.90
8824;DHT22;4448;50.904;4.694;2023-10-19T15:02:56;17.80;99.90
8824;DHT22;4448;50.904;4.694;2023-10-19T15:05:23;17.80;99.90
8824;DHT22;4448;50.904;4.694;2023-10-19T15:07:51;17.80;99.90
8824;DHT22;4448;50.904;4.694;2023-10-19T15:10:40;17.80;99.90
8824;DHT22;4448;50.904;4.694;2023-10-19T15:13:07;17.70;99.90
8824;DHT22;4448;50.904;4.694;2023-10-19T15:15:33;17.70;99.90
8824;DHT22;4448;50.904;4.694;2023-10-19T15:17:59;17.70;99.90
8824;DHT22;4448;50.904;4.694;2023-10-19T15:20:27;17.70;99.90
8824;DHT22;4448;50.904;4.694;2023-10-19T15:22:54;17.70;99.90
8824;DHT22;4448;50.904;4.694;2023-10-19T15:25:20;17.70;99.90
8824;DHT22;4448;50.904;4.694;2023-10-19T15:27:47;17.60;99.90
8824;DHT22;4448;50.904;4.694;2023-10-19T15:30:16;17.60;99.90
8824;DHT22;4448;50.904;4.694;2023-10-19T15:32:43;17.60;99.90
8824;DHT22;4448;50.904;4.694;2023-10-19T15:35:13;17.70;99.90
8824;DHT22;4448;50.904;4.694;2023-10-19T15:37:41;17.60;99.90
8824;DHT22;4448;50.904;4.694;2023-10-19T15:40:07;17.60;99.90
8824;DHT22;4448;50.904;4.694;2023-10-19T15:42:33;17.60;99.90
8824;DHT22;4448;50.904;4.694;2023-10-19T15:45:01;17.60;99.90
8824;DHT22;4448;50.904;4.694;2023-10-19T15:47:27;17.60;99.90
8824;DHT22;4448;50.904;4.694;2023-10-19T15:49:54;17.60;99.90
8824;DHT22;4448;50.904;4.694;2023-10-19T15:52:25;17.60;99.90
8824;DHT22;4448;50.904;4.694;2023-10-19T15:54:51;17.60;99.90
8824;DHT22;4448;50.904;4.694;2023-10-19T15:57:17;17.60;99.90
8824;DHT22;4448;50.904;4.694;2023-10-19T15:59:44;17.60;99.90
8824;DHT22;4448;50.904;4.694;2023-10-19T16:02:10;17.50;99.90
8824;DHT22;4448;50.904;4.694;2023-10-19T16:04:40;17.50;99.90
8824;DHT22;4448;50.904;4.694;2023-10-19T16:07:08;17.50;99.90
8824;DHT22;4448;50.904;4.694;2023-10-19T16:09:34;17.50;99.90
8824;DHT22;4448;50.904;4.694;2023-10-19T16:12:00;17.50;99.90
8824;DHT22;4448;50.904;4.694;2023-10-19T16:14:26;17.50;99.90
8824;DHT22;4448;50.904;4.694;2023-10-19T16:16:52;17.50;99.90
8824;DHT22;4448;50.904;4.694;2023-10-19T16:19:18;17.50;99.90
8824;DHT22;4448;50.904;4.694;2023-10-19T16:21:44;17.50;99.90
8824;DHT22;4448;50.904;4.694;2023-10-19T16:24:10;17.40;99.90
8824;DHT22;4448;50.904;4.694;2023-10-19T16:26:37;17.40;99.90
8824;DHT22;4448;50.904;4.694;2023-10-19T16:29:03;17.40;99.90
8824;DHT22;4448;50.904;4.694;2023-10-19T16:31:41;17.80;99.90